createdAt,value
2018-05-05T00:00:52.153Z,4.30
2018-05-05T00:01:52.142Z,4.70
2018-05-05T00:02:52.112Z,3.80
2018-05-05T00:03:52.074Z,10.00
2018-05-05T00:04:52.091Z,4.00
2018-05-05T00:05:52.026Z,3.10
2018-05-05T00:06:52.009Z,5.00
2018-05-05T00:07:52.005Z,3.70
2018-05-05T00:08:51.946Z,4.80
2018-05-05T00:09:51.932Z,3.70
2018-05-05T00:10:51.897Z,7.40
2018-05-05T00:11:51.878Z,6.30
2018-05-05T00:12:51.853Z,4.60
2018-05-05T00:13:51.824Z,3.90
2018-05-05T00:14:51.803Z,3.40
2018-05-05T00:15:51.803Z,3.70
2018-05-05T00:16:51.742Z,7.00
2018-05-05T00:17:51.715Z,2.90
2018-05-05T00:18:51.738Z,4.20
2018-05-05T00:19:51.682Z,6.30
2018-05-05T00:20:51.657Z,6.50
2018-05-05T00:21:51.655Z,2.80
2018-05-05T00:22:51.596Z,9.40
2018-05-05T00:23:51.569Z,2.30
2018-05-05T00:24:51.579Z,4.90
2018-05-05T00:25:51.516Z,7.20
2018-05-05T00:26:51.496Z,3.70
2018-05-05T00:27:51.467Z,5.10
2018-05-05T00:28:51.504Z,6.00
2018-05-05T00:29:51.440Z,3.00
2018-05-05T00:30:51.420Z,6.30
2018-05-05T00:31:51.364Z,4.20
2018-05-05T00:32:51.337Z,5.20
2018-05-05T00:33:51.314Z,3.40
2018-05-05T00:34:51.291Z,3.40
2018-05-05T00:35:51.257Z,2.90
2018-05-05T00:36:51.257Z,4.20
2018-05-05T00:37:51.212Z,4.30
2018-05-05T00:38:51.197Z,6.80
2018-05-05T00:39:51.177Z,4.20
2018-05-05T00:40:51.140Z,3.90
2018-05-05T00:41:51.118Z,5.10
2018-05-05T00:42:51.123Z,4.70
2018-05-05T00:43:51.098Z,8.30
2018-05-05T00:44:51.027Z,4.10
2018-05-05T00:45:51.005Z,6.00
2018-05-05T00:46:50.984Z,3.60
2018-05-05T00:47:50.966Z,2.80
2018-05-05T00:48:50.928Z,2.70
2018-05-05T00:49:50.925Z,6.00
2018-05-05T00:50:50.876Z,3.40
2018-05-05T00:51:50.854Z,3.10
2018-05-05T00:52:50.836Z,4.80
2018-05-05T00:53:50.801Z,2.80
2018-05-05T00:54:50.778Z,3.10
2018-05-05T00:55:50.784Z,4.30
2018-05-05T00:56:50.732Z,3.50
2018-05-05T00:57:50.695Z,5.10
2018-05-05T00:58:50.692Z,3.50
2018-05-05T00:59:50.642Z,4.00
2018-05-05T01:00:50.617Z,3.80
2018-05-05T01:01:50.628Z,3.50
2018-05-05T01:02:50.571Z,2.90
2018-05-05T01:03:50.537Z,3.10
2018-05-05T01:04:50.551Z,4.60
2018-05-05T01:05:50.489Z,3.90
2018-05-05T01:06:50.465Z,3.10
2018-05-05T01:07:50.463Z,5.20
2018-05-05T01:08:50.419Z,4.00
2018-05-05T01:09:50.381Z,6.00
2018-05-05T01:10:50.389Z,3.60
2018-05-05T01:11:50.341Z,5.10
2018-05-05T01:12:50.300Z,3.50
2018-05-05T01:13:50.308Z,3.90
2018-05-05T01:14:50.266Z,7.70
2018-05-05T01:15:50.231Z,2.40
2018-05-05T01:16:50.228Z,3.00
2018-05-05T01:17:50.177Z,4.90
2018-05-05T01:18:50.160Z,5.70
2018-05-05T01:19:50.143Z,3.90
2018-05-05T01:20:50.102Z,4.60
2018-05-05T01:21:50.084Z,4.80
2018-05-05T01:22:50.065Z,2.60
2018-05-05T01:23:50.019Z,3.30
2018-05-05T01:24:49.996Z,5.00
2018-05-05T01:25:49.984Z,4.40
2018-05-05T01:26:49.951Z,6.80
2018-05-05T01:27:49.913Z,2.70
2018-05-05T01:28:49.900Z,4.10
2018-05-05T01:29:49.860Z,4.40
2018-05-05T01:30:49.840Z,2.80
2018-05-05T01:31:49.816Z,4.20
2018-05-05T01:32:49.788Z,5.40
2018-05-05T01:33:49.770Z,8.40
2018-05-05T01:34:49.734Z,5.40
2018-05-05T01:35:49.707Z,4.10
2018-05-05T01:36:49.702Z,3.20
2018-05-05T01:37:49.730Z,3.50
2018-05-05T01:38:49.633Z,6.40
2018-05-05T01:39:49.622Z,5.40
2018-05-05T01:40:49.731Z,3.20
2018-05-05T01:41:49.549Z,6.50
2018-05-05T01:42:49.532Z,5.40
2018-05-05T01:43:49.507Z,4.80
2018-05-05T01:44:49.476Z,4.60
2018-05-05T01:45:49.452Z,3.60
2018-05-05T01:46:49.429Z,2.00
2018-05-05T01:47:49.401Z,2.10
2018-05-05T01:48:49.372Z,5.60
2018-05-05T01:49:49.348Z,4.40
2018-05-05T01:50:49.319Z,2.40
2018-05-05T01:51:49.299Z,3.40
2018-05-05T01:52:49.266Z,3.70
2018-05-05T01:53:49.249Z,5.20
2018-05-05T01:54:49.218Z,2.90
2018-05-05T01:55:49.190Z,3.60
2018-05-05T01:56:49.157Z,4.50
2018-05-05T01:57:49.141Z,6.50
2018-05-05T01:58:49.106Z,2.80
2018-05-05T01:59:49.101Z,8.10
2018-05-05T02:00:49.059Z,5.30
2018-05-05T02:01:49.024Z,3.30
2018-05-05T02:02:48.999Z,6.50
2018-05-05T02:03:48.975Z,5.30
2018-05-05T02:04:48.964Z,3.20
2018-05-05T02:05:48.929Z,4.00
2018-05-05T02:06:48.906Z,3.80
2018-05-05T02:07:48.867Z,3.30
2018-05-05T02:08:48.849Z,3.50
2018-05-05T02:09:48.822Z,6.50
2018-05-05T02:10:48.792Z,5.70
2018-05-05T02:11:48.774Z,6.80
2018-05-05T02:12:48.739Z,2.70
2018-05-05T02:13:48.734Z,3.80
2018-05-05T02:14:48.691Z,3.30
2018-05-05T02:15:48.660Z,4.10
2018-05-05T02:16:48.650Z,4.60
2018-05-05T02:17:48.612Z,3.00
2018-05-05T02:18:48.599Z,2.70
2018-05-05T02:19:48.565Z,5.90
2018-05-05T02:20:48.529Z,3.60
2018-05-05T02:21:48.521Z,4.10
2018-05-05T02:22:48.518Z,3.30
2018-05-05T02:23:48.457Z,8.00
2018-05-05T02:24:48.452Z,3.20
2018-05-05T02:25:48.397Z,2.90
2018-05-05T02:26:48.383Z,4.30
2018-05-05T02:27:48.361Z,2.30
2018-05-05T02:28:48.337Z,3.70
2018-05-05T02:29:48.296Z,6.70
2018-05-05T02:30:48.271Z,4.20
2018-05-05T02:31:48.259Z,4.30
2018-05-05T02:32:48.221Z,3.70
2018-05-05T02:33:48.189Z,2.30
2018-05-05T02:34:48.173Z,5.20
2018-05-05T02:35:48.137Z,3.50
2018-05-05T02:36:48.115Z,3.90
2018-05-05T02:37:48.081Z,5.50
2018-05-05T02:38:48.056Z,3.20
2018-05-05T02:39:48.039Z,5.60
2018-05-05T02:40:48.021Z,2.70
2018-05-05T02:41:47.988Z,3.40
2018-05-05T02:42:47.951Z,3.00
2018-05-05T02:43:47.929Z,5.10
2018-05-05T02:44:47.904Z,2.50
2018-05-05T02:45:47.872Z,4.40
2018-05-05T02:46:47.851Z,3.60
2018-05-05T02:47:47.849Z,6.40
2018-05-05T02:48:47.798Z,4.40
2018-05-05T02:49:47.768Z,4.90
2018-05-05T02:50:47.803Z,4.20
2018-05-05T02:51:47.724Z,4.70
2018-05-05T02:52:47.700Z,4.50
2018-05-05T02:53:47.743Z,4.40
2018-05-05T02:54:47.647Z,3.10
2018-05-05T02:55:47.624Z,3.00
2018-05-05T02:56:47.634Z,2.50
2018-05-05T02:57:47.576Z,3.60
2018-05-05T02:58:47.539Z,3.60
2018-05-05T02:59:47.532Z,4.00
2018-05-05T03:00:47.476Z,3.80
2018-05-05T03:01:47.456Z,3.00
2018-05-05T03:02:47.463Z,2.80
2018-05-05T03:03:47.394Z,5.20
2018-05-05T03:04:47.373Z,6.10
2018-05-05T03:05:47.359Z,2.70
2018-05-05T03:06:47.404Z,3.50
2018-05-05T03:07:47.329Z,3.80
2018-05-05T03:08:47.276Z,4.50
2018-05-05T03:09:47.240Z,3.70
2018-05-05T03:10:47.225Z,6.80
2018-05-05T03:11:47.215Z,3.50
2018-05-05T03:12:47.165Z,5.30
2018-05-05T03:13:47.146Z,4.90
2018-05-05T03:14:47.129Z,3.70
2018-05-05T03:15:47.097Z,3.00
2018-05-05T03:16:47.062Z,5.60
2018-05-05T03:17:47.051Z,3.60
2018-05-05T03:18:47.037Z,2.80
2018-05-05T03:19:47.023Z,5.50
2018-05-05T03:20:47.012Z,3.80
2018-05-05T03:21:46.928Z,4.80
2018-05-05T03:22:46.920Z,2.90
2018-05-05T03:23:46.874Z,4.60
2018-05-05T03:24:46.906Z,4.50
2018-05-05T03:25:46.863Z,4.00
2018-05-05T03:26:46.833Z,4.30
2018-05-05T03:27:46.803Z,5.30
2018-05-05T03:28:46.761Z,3.40
2018-05-05T03:29:46.749Z,6.60
2018-05-05T03:30:46.699Z,4.10
2018-05-05T03:31:46.755Z,3.30
2018-05-05T03:32:46.676Z,3.40
2018-05-05T03:33:46.617Z,6.50
2018-05-05T03:34:46.584Z,6.40
2018-05-05T03:35:46.549Z,4.70
2018-05-05T03:36:46.544Z,3.90
2018-05-05T03:37:46.509Z,4.60
2018-05-05T03:38:46.610Z,2.60
2018-05-05T03:39:46.509Z,3.70
2018-05-05T03:40:46.476Z,4.60
2018-05-05T03:41:46.394Z,4.00
2018-05-05T03:42:46.380Z,3.80
2018-05-05T03:43:46.334Z,4.50
2018-05-05T03:44:46.436Z,5.70
2018-05-05T03:45:46.278Z,4.10
2018-05-05T03:46:46.285Z,4.70
2018-05-05T03:47:46.279Z,3.80
2018-05-05T03:48:46.215Z,7.90
2018-05-05T03:49:46.183Z,3.10
2018-05-05T03:50:46.197Z,3.60
2018-05-05T03:51:46.305Z,4.80
2018-05-05T03:52:46.126Z,4.80
2018-05-05T03:53:46.080Z,3.80
2018-05-05T03:54:46.121Z,5.00
2018-05-05T03:55:46.148Z,5.80
2018-05-05T03:56:46.023Z,6.50
2018-05-05T03:57:45.980Z,13.10
2018-05-05T03:58:45.940Z,2.90
2018-05-05T03:59:46.020Z,34.60
2018-05-05T04:00:45.882Z,3.80
2018-05-05T04:01:45.967Z,4.40
2018-05-05T04:02:46.103Z,5.70
2018-05-05T04:03:45.877Z,12.30
2018-05-05T04:04:45.816Z,5.30
2018-05-05T04:05:45.773Z,31.20
2018-05-05T04:06:45.739Z,4.30
2018-05-05T04:07:45.681Z,12.90
2018-05-05T04:08:45.761Z,26.60
2018-05-05T04:09:45.676Z,11.80
2018-05-05T04:10:45.608Z,23.60
2018-05-05T04:11:45.693Z,11.20
2018-05-05T04:12:45.584Z,10.90
2018-05-05T04:13:45.573Z,17.50
2018-05-05T04:14:45.635Z,24.90
2018-05-05T04:15:45.482Z,12.50
2018-05-05T04:16:45.457Z,19.50
2018-05-05T04:17:45.441Z,30.90
2018-05-05T04:18:45.380Z,30.80
2018-05-05T04:19:45.376Z,28.90
2018-05-05T04:20:45.344Z,14.10
2018-05-05T04:21:45.302Z,27.80
2018-05-05T04:22:45.290Z,19.40
2018-05-05T04:23:45.279Z,15.40
2018-05-05T04:24:45.231Z,13.90
2018-05-05T04:25:45.247Z,20.30
2018-05-05T04:26:45.176Z,16.10
2018-05-05T04:27:45.146Z,25.00
2018-05-05T04:28:45.119Z,31.10
2018-05-05T04:29:45.106Z,47.40
2018-05-05T04:30:45.089Z,39.40
2018-05-05T04:31:45.050Z,49.30
2018-05-05T04:32:45.032Z,35.10
2018-05-05T04:33:44.974Z,4.60
2018-05-05T04:34:45.001Z,4.10
2018-05-05T04:35:44.938Z,5.50
2018-05-05T04:36:45.004Z,54.40
2018-05-05T04:37:44.878Z,62.30
2018-05-05T04:38:44.857Z,52.10
2018-05-05T04:39:44.828Z,58.00
2018-05-05T04:40:44.788Z,37.40
2018-05-05T04:41:44.774Z,43.80
2018-05-05T04:42:44.758Z,17.50
2018-05-05T04:43:44.721Z,18.00
2018-05-05T04:44:44.683Z,38.10
2018-05-05T04:45:44.681Z,37.60
2018-05-05T04:46:44.635Z,22.40
2018-05-05T04:47:44.607Z,42.40
2018-05-05T04:48:44.609Z,24.50
2018-05-05T04:49:44.556Z,24.30
2018-05-05T04:50:44.537Z,32.20
2018-05-05T04:51:44.521Z,41.00
2018-05-05T04:52:44.463Z,33.60
2018-05-05T04:53:44.444Z,32.80
2018-05-05T04:54:44.456Z,24.90
2018-05-05T04:55:44.387Z,21.10
2018-05-05T04:56:44.374Z,14.00
2018-05-05T04:57:44.360Z,22.20
2018-05-05T04:58:44.306Z,25.50
2018-05-05T04:59:44.281Z,21.70
2018-05-05T05:00:44.287Z,27.60
2018-05-05T05:01:44.224Z,14.50
2018-05-05T05:02:44.235Z,48.40
2018-05-05T05:03:44.216Z,58.70
2018-05-05T05:04:44.151Z,27.10
2018-05-05T05:05:44.141Z,30.80
2018-05-05T05:06:44.120Z,18.70
2018-05-05T05:07:44.066Z,38.00
2018-05-05T05:08:44.048Z,47.30
2018-05-05T05:09:44.032Z,64.50
2018-05-05T05:10:43.985Z,70.00
2018-05-05T05:11:43.980Z,87.10
2018-05-05T05:12:43.947Z,69.30
2018-05-05T05:13:43.938Z,12.60
2018-05-05T05:14:43.897Z,53.60
2018-05-05T05:15:43.881Z,53.70
2018-05-05T05:16:43.832Z,16.30
2018-05-05T05:17:43.813Z,53.50
2018-05-05T05:18:43.784Z,43.40
2018-05-05T05:19:43.745Z,58.10
2018-05-05T05:20:43.719Z,30.70
2018-05-05T05:21:43.691Z,75.30
2018-05-05T05:22:43.658Z,84.90
2018-05-05T05:23:43.675Z,21.70
2018-05-05T05:24:43.617Z,28.40
2018-05-05T05:25:43.616Z,55.40
2018-05-05T05:26:43.560Z,56.20
2018-05-05T05:27:43.533Z,38.30
2018-05-05T05:28:43.552Z,49.60
2018-05-05T05:29:43.479Z,28.10
2018-05-05T05:30:43.463Z,14.70
2018-05-05T05:31:43.428Z,34.00
2018-05-05T05:32:43.394Z,30.40
2018-05-05T05:33:43.380Z,22.10
2018-05-05T05:34:43.346Z,34.30
2018-05-05T05:35:43.321Z,51.30
2018-05-05T05:36:43.307Z,41.90
2018-05-05T05:37:43.263Z,30.60
2018-05-05T05:38:43.237Z,11.20
2018-05-05T05:39:43.268Z,29.60
2018-05-05T05:40:43.186Z,8.10
2018-05-05T05:41:43.157Z,5.50
2018-05-05T05:42:43.151Z,11.70
2018-05-05T05:43:43.116Z,17.30
2018-05-05T05:44:43.082Z,13.90
2018-05-05T05:45:43.074Z,4.90
2018-05-05T05:46:43.046Z,3.20
2018-05-05T05:47:43.004Z,11.20
2018-05-05T05:48:43.004Z,5.20
2018-05-05T05:49:42.948Z,9.10
2018-05-05T05:50:42.996Z,17.80
2018-05-05T05:51:42.909Z,19.40
2018-05-05T05:52:42.872Z,4.90
2018-05-05T05:53:42.852Z,12.80
2018-05-05T05:54:42.827Z,2.60
2018-05-05T05:55:42.877Z,4.70
2018-05-05T05:56:42.866Z,15.10
2018-05-05T05:57:42.748Z,9.90
2018-05-05T05:58:42.727Z,8.00
2018-05-05T05:59:42.731Z,13.40
2018-05-05T06:00:42.669Z,23.10
2018-05-05T06:01:42.651Z,22.80
2018-05-05T06:02:42.617Z,11.30
2018-05-05T06:03:42.597Z,7.80
2018-05-05T06:04:42.573Z,4.80
2018-05-05T06:05:42.538Z,25.10
2018-05-05T06:06:42.513Z,21.00
2018-05-05T06:07:42.496Z,4.20
2018-05-05T06:08:42.467Z,8.80
2018-05-05T06:09:42.433Z,35.00
2018-05-05T06:10:42.421Z,37.60
2018-05-05T06:11:42.391Z,13.30
2018-05-05T06:12:42.368Z,3.40
2018-05-05T06:13:42.363Z,8.30
2018-05-05T06:14:42.315Z,6.10
2018-05-05T06:15:42.282Z,57.60
2018-05-05T06:16:42.252Z,20.10
2018-05-05T06:17:42.236Z,23.30
2018-05-05T06:18:42.215Z,28.70
2018-05-05T06:19:42.201Z,9.30
2018-05-05T06:20:42.156Z,38.10
2018-05-05T06:21:42.134Z,37.40
2018-05-05T06:22:42.113Z,7.50
2018-05-05T06:23:42.077Z,39.10
2018-05-05T06:24:42.051Z,68.40
2018-05-05T06:25:42.041Z,26.00
2018-05-05T06:26:42.010Z,3.30
2018-05-05T06:27:41.978Z,7.30
2018-05-05T06:28:41.961Z,14.20
2018-05-05T06:29:41.930Z,3.30
2018-05-05T06:30:41.902Z,3.50
2018-05-05T06:31:41.887Z,2.80
2018-05-05T06:32:41.849Z,6.80
2018-05-05T06:33:41.827Z,3.10
2018-05-05T06:34:41.806Z,3.40
2018-05-05T06:35:41.775Z,40.90
2018-05-05T06:36:41.745Z,3.10
2018-05-05T06:37:41.737Z,3.70
2018-05-05T06:38:41.703Z,10.20
2018-05-05T06:39:41.688Z,2.10
2018-05-05T06:40:41.653Z,6.30
2018-05-05T06:41:41.623Z,4.80
2018-05-05T06:42:41.604Z,3.60
2018-05-05T06:43:41.579Z,6.10
2018-05-05T06:44:41.561Z,5.00
2018-05-05T06:45:41.525Z,3.30
2018-05-05T06:46:41.500Z,3.80
2018-05-05T06:47:41.468Z,3.60
2018-05-05T06:48:41.452Z,2.80
2018-05-05T06:49:41.421Z,2.70
2018-05-05T06:50:41.395Z,3.60
2018-05-05T06:51:41.372Z,2.30
2018-05-05T06:52:41.354Z,3.10
2018-05-05T06:53:41.325Z,3.00
2018-05-05T06:54:41.304Z,2.50
2018-05-05T06:55:41.275Z,2.60
2018-05-05T06:56:41.256Z,2.40
2018-05-05T06:57:41.227Z,4.10
2018-05-05T06:58:41.197Z,3.60
2018-05-05T06:59:41.171Z,1.60
2018-05-05T07:00:41.150Z,2.20
2018-05-05T07:01:41.124Z,2.50
2018-05-05T07:02:41.112Z,3.20
2018-05-05T07:03:41.077Z,3.40
2018-05-05T07:04:41.051Z,2.90
2018-05-05T07:05:41.023Z,3.40
2018-05-05T07:06:40.993Z,3.10
2018-05-05T07:07:40.972Z,2.90
2018-05-05T07:08:40.959Z,1.70
2018-05-05T07:09:40.924Z,1.90
2018-05-05T07:10:40.894Z,4.40
2018-05-05T07:11:40.878Z,2.40
2018-05-05T07:12:40.853Z,3.00
2018-05-05T07:13:40.824Z,1.60
2018-05-05T07:14:40.804Z,3.40
2018-05-05T07:15:40.814Z,1.50
2018-05-05T07:16:40.752Z,1.40
2018-05-05T07:17:40.730Z,3.20
2018-05-05T07:18:40.714Z,2.00
2018-05-05T07:19:40.674Z,3.40
2018-05-05T07:20:40.657Z,3.20
2018-05-05T07:21:40.625Z,1.70
2018-05-05T07:22:40.599Z,2.10
2018-05-05T07:23:40.584Z,3.50
2018-05-05T07:24:40.551Z,1.90
2018-05-05T07:25:40.534Z,2.10
2018-05-05T07:26:40.511Z,3.70
2018-05-05T07:27:40.484Z,2.50
2018-05-05T07:28:40.464Z,5.10
2018-05-05T07:29:40.437Z,1.60
2018-05-05T07:30:40.411Z,2.70
2018-05-05T07:31:40.401Z,2.40
2018-05-05T07:32:40.363Z,2.40
2018-05-05T07:33:40.330Z,1.70
2018-05-05T07:34:40.310Z,2.50
2018-05-05T07:35:40.305Z,2.30
2018-05-05T07:36:40.260Z,2.10
2018-05-05T07:37:40.267Z,3.60
2018-05-05T07:38:40.211Z,4.30
2018-05-05T07:39:40.188Z,2.10
2018-05-05T07:40:40.173Z,3.00
2018-05-05T07:41:40.194Z,1.80
2018-05-05T07:42:40.117Z,2.30
2018-05-05T07:43:40.090Z,3.10
2018-05-05T07:44:40.096Z,3.50
2018-05-05T07:45:40.041Z,1.50
2018-05-05T07:46:40.021Z,1.80
2018-05-05T07:47:39.994Z,1.80
2018-05-05T07:48:39.966Z,2.80
2018-05-05T07:49:39.944Z,1.70
2018-05-05T07:50:39.929Z,4.20
2018-05-05T07:51:39.899Z,2.50
2018-05-05T07:52:39.886Z,3.40
2018-05-05T07:53:39.846Z,1.40
2018-05-05T07:54:39.829Z,1.80
2018-05-05T07:55:39.800Z,2.70
2018-05-05T07:56:39.773Z,3.40
2018-05-05T07:57:39.757Z,2.80
2018-05-05T07:58:39.736Z,3.00
2018-05-05T07:59:39.707Z,3.20
2018-05-05T08:00:39.691Z,4.70
2018-05-05T08:01:39.653Z,1.70
2018-05-05T08:02:39.638Z,2.10
2018-05-05T08:03:39.612Z,4.20
2018-05-05T08:04:39.587Z,2.00
2018-05-05T08:05:39.562Z,3.70
2018-05-05T08:06:39.559Z,3.30
2018-05-05T08:07:39.540Z,3.20
2018-05-05T08:08:39.494Z,3.70
2018-05-05T08:09:39.465Z,2.30
2018-05-05T08:10:39.483Z,1.40
2018-05-05T08:11:39.427Z,1.50
2018-05-05T08:12:39.398Z,2.20
2018-05-05T08:13:39.374Z,3.00
2018-05-05T08:14:39.354Z,4.60
2018-05-05T08:15:39.325Z,3.10
2018-05-05T08:16:39.302Z,5.30
2018-05-05T08:17:39.283Z,2.50
2018-05-05T08:18:39.254Z,1.90
2018-05-05T08:19:39.235Z,2.30
2018-05-05T08:20:39.205Z,1.70
2018-05-05T08:21:39.185Z,2.00
2018-05-05T08:22:39.184Z,2.10
2018-05-05T08:23:39.130Z,2.00
2018-05-05T08:24:39.114Z,1.80
2018-05-05T08:25:39.087Z,1.70
2018-05-05T08:26:39.067Z,3.90
2018-05-05T08:27:39.039Z,3.70
2018-05-05T08:28:39.019Z,1.70
2018-05-05T08:29:38.990Z,1.60
2018-05-05T08:30:38.976Z,2.70
2018-05-05T08:31:38.950Z,1.50
2018-05-05T08:32:38.922Z,2.40
2018-05-05T08:33:38.899Z,1.70
2018-05-05T08:34:38.879Z,2.20
2018-05-05T08:35:38.852Z,2.00
2018-05-05T08:36:38.835Z,1.20
2018-05-05T08:37:38.881Z,1.20
2018-05-05T08:38:38.790Z,1.70
2018-05-05T08:39:38.763Z,1.30
2018-05-05T08:40:38.749Z,2.30
2018-05-05T08:41:38.712Z,2.50
2018-05-05T08:42:38.743Z,2.00
2018-05-05T08:43:38.663Z,2.10
2018-05-05T08:44:38.672Z,3.00
2018-05-05T08:45:38.616Z,2.10
2018-05-05T08:46:38.591Z,6.00
2018-05-05T08:47:38.580Z,2.20
2018-05-05T08:48:38.561Z,5.80
2018-05-05T08:49:38.583Z,2.70
2018-05-05T08:50:38.514Z,2.90
2018-05-05T08:51:38.479Z,1.90
2018-05-05T08:52:38.456Z,3.40
2018-05-05T08:53:38.433Z,2.70
2018-05-05T08:54:38.422Z,2.90
2018-05-05T08:55:38.384Z,3.00
2018-05-05T08:56:38.361Z,3.20
2018-05-05T08:57:38.385Z,2.40
2018-05-05T08:58:38.317Z,6.90
2018-05-05T08:59:38.293Z,3.70
2018-05-05T09:00:38.270Z,3.40
2018-05-05T09:01:38.256Z,2.60
2018-05-05T09:02:38.232Z,1.90
2018-05-05T09:03:38.194Z,3.50
2018-05-05T09:04:38.179Z,2.20
2018-05-05T09:05:38.155Z,3.10
2018-05-05T09:06:38.136Z,2.60
2018-05-05T09:07:38.113Z,3.20
2018-05-05T09:08:38.087Z,2.30
2018-05-05T09:09:38.071Z,3.30
2018-05-05T09:10:38.036Z,1.90
2018-05-05T09:11:38.014Z,4.10
2018-05-05T09:12:37.988Z,5.80
2018-05-05T09:13:37.974Z,5.80
2018-05-05T09:14:37.949Z,2.40
2018-05-05T09:15:37.920Z,4.50
2018-05-05T09:16:37.899Z,1.80
2018-05-05T09:17:37.878Z,2.10
2018-05-05T09:18:37.850Z,3.30
2018-05-05T09:19:37.839Z,2.50
2018-05-05T09:20:37.809Z,2.70
2018-05-05T09:21:37.786Z,3.20
2018-05-05T09:22:37.765Z,3.90
2018-05-05T09:23:37.747Z,2.10
2018-05-05T09:24:37.717Z,3.30
2018-05-05T09:25:37.707Z,2.60
2018-05-05T09:26:37.677Z,3.00
2018-05-05T09:27:37.653Z,5.20
2018-05-05T09:28:37.628Z,3.40
2018-05-05T09:29:37.606Z,3.70
2018-05-05T09:30:37.590Z,7.00
2018-05-05T09:31:37.561Z,2.40
2018-05-05T09:32:37.538Z,4.10
2018-05-05T09:33:37.515Z,2.80
2018-05-05T09:34:37.497Z,3.70
2018-05-05T09:35:37.475Z,3.80
2018-05-05T09:36:37.448Z,2.30
2018-05-05T09:37:37.425Z,3.00
2018-05-05T09:38:37.408Z,6.70
2018-05-05T09:39:37.375Z,4.70
2018-05-05T09:40:37.352Z,3.00
2018-05-05T09:41:37.327Z,1.90
2018-05-05T09:42:37.368Z,4.00
2018-05-05T09:43:37.292Z,2.90
2018-05-05T09:44:37.261Z,4.00
2018-05-05T09:45:37.246Z,4.70
2018-05-05T09:46:37.224Z,2.70
2018-05-05T09:47:37.196Z,2.30
2018-05-05T09:48:37.177Z,2.90
2018-05-05T09:49:37.150Z,6.50
2018-05-05T09:50:37.131Z,2.60
2018-05-05T09:51:37.103Z,3.50
2018-05-05T09:52:37.085Z,3.80
2018-05-05T09:53:37.060Z,4.70
2018-05-05T09:54:37.035Z,3.20
2018-05-05T09:55:37.020Z,4.20
2018-05-05T09:56:36.997Z,3.40
2018-05-05T09:57:36.973Z,3.60
2018-05-05T09:58:36.951Z,3.90
2018-05-05T09:59:36.923Z,2.70
2018-05-05T10:00:36.901Z,3.10
2018-05-05T10:01:36.879Z,3.40
2018-05-05T10:02:36.860Z,5.30
2018-05-05T10:03:36.838Z,3.80
2018-05-05T10:04:36.814Z,2.20
2018-05-05T10:05:36.787Z,3.20
2018-05-05T10:06:36.764Z,2.30
2018-05-05T10:07:36.743Z,2.50
2018-05-05T10:08:36.722Z,2.50
2018-05-05T10:09:36.698Z,3.40
2018-05-05T10:10:36.682Z,4.00
2018-05-05T10:11:36.646Z,3.70
2018-05-05T10:12:36.652Z,4.30
2018-05-05T10:13:36.615Z,3.90
2018-05-05T10:14:36.579Z,3.20
2018-05-05T10:15:36.570Z,2.70
2018-05-05T10:16:36.532Z,4.50
2018-05-05T10:17:36.532Z,3.60
2018-05-05T10:18:36.495Z,3.50
2018-05-05T10:19:36.470Z,3.50
2018-05-05T10:20:36.443Z,4.70
2018-05-05T10:21:36.437Z,3.70
2018-05-05T10:22:36.396Z,2.60
2018-05-05T10:23:36.380Z,3.80
2018-05-05T10:24:36.357Z,7.10
2018-05-05T10:25:36.365Z,4.30
2018-05-05T10:26:36.312Z,4.30
2018-05-05T10:27:36.292Z,3.00
2018-05-05T10:28:36.262Z,3.00
2018-05-05T10:29:36.241Z,3.80
2018-05-05T10:30:36.230Z,3.40
2018-05-05T10:31:36.285Z,3.30
2018-05-05T10:32:36.192Z,3.30
2018-05-05T10:33:36.162Z,2.40
2018-05-05T10:34:36.128Z,5.20
2018-05-05T10:35:36.113Z,2.60
2018-05-05T10:36:36.083Z,3.90
2018-05-05T10:37:36.072Z,4.10
2018-05-05T10:38:36.045Z,4.90
2018-05-05T10:39:36.083Z,3.60
2018-05-05T10:40:36.010Z,6.00
2018-05-05T10:41:35.972Z,3.30
2018-05-05T10:42:35.950Z,5.90
2018-05-05T10:43:35.929Z,4.60
2018-05-05T10:44:35.915Z,3.60
2018-05-05T10:45:35.882Z,3.30
2018-05-05T10:46:35.860Z,4.30
2018-05-05T10:47:35.833Z,3.00
2018-05-05T10:48:35.808Z,3.20
2018-05-05T10:49:35.796Z,2.50
2018-05-05T10:50:35.781Z,4.90
2018-05-05T10:51:35.750Z,3.00
2018-05-05T10:52:35.719Z,3.80
2018-05-05T10:53:35.704Z,9.40
2018-05-05T10:54:35.676Z,2.80
2018-05-05T10:55:35.722Z,4.70
2018-05-05T10:56:35.635Z,2.20
2018-05-05T10:57:35.611Z,2.20
2018-05-05T10:58:35.635Z,5.40
2018-05-05T10:59:35.565Z,3.30
2018-05-05T11:00:35.540Z,5.40
2018-05-05T11:01:35.612Z,4.70
2018-05-05T11:02:35.492Z,4.80
2018-05-05T11:03:35.478Z,4.40
2018-05-05T11:04:35.461Z,4.00
2018-05-05T11:05:35.430Z,3.10
2018-05-05T11:06:35.412Z,3.60
2018-05-05T11:07:35.380Z,7.90
2018-05-05T11:08:35.364Z,5.20
2018-05-05T11:09:35.340Z,2.70
2018-05-05T11:10:35.314Z,2.90
2018-05-05T11:11:35.297Z,4.80
2018-05-05T11:12:35.293Z,4.20
2018-05-05T11:13:35.255Z,4.90
2018-05-05T11:14:35.233Z,3.30
2018-05-05T11:15:35.203Z,3.70
2018-05-05T11:16:35.191Z,2.90
2018-05-05T11:17:35.156Z,13.60
2018-05-05T11:18:35.141Z,3.20
2018-05-05T11:19:35.123Z,4.30
2018-05-05T11:20:35.092Z,4.80
2018-05-05T11:21:35.072Z,4.20
2018-05-05T11:22:35.042Z,2.20
2018-05-05T11:23:35.033Z,2.90
2018-05-05T11:24:34.997Z,3.90
2018-05-05T11:25:34.987Z,4.30
2018-05-05T11:26:34.959Z,3.40
2018-05-05T11:27:34.939Z,5.60
2018-05-05T11:28:34.910Z,3.50
2018-05-05T11:29:34.891Z,8.00
2018-05-05T11:30:34.896Z,5.60
2018-05-05T11:31:34.887Z,3.90
2018-05-05T11:32:34.829Z,3.90
2018-05-05T11:33:34.817Z,4.90
2018-05-05T11:34:34.775Z,9.90
2018-05-05T11:35:34.762Z,4.80
2018-05-05T11:36:34.730Z,3.80
2018-05-05T11:37:34.721Z,4.00
2018-05-05T11:38:34.693Z,5.90
2018-05-05T11:39:34.673Z,3.40
2018-05-05T11:40:34.660Z,3.80
2018-05-05T11:41:34.619Z,3.30
2018-05-05T11:42:34.607Z,3.20
2018-05-05T11:43:34.586Z,4.20
2018-05-05T11:44:34.560Z,2.10
2018-05-05T11:45:34.539Z,5.10
2018-05-05T11:46:34.519Z,4.60
2018-05-05T11:47:34.505Z,3.40
2018-05-05T11:48:34.472Z,5.40
2018-05-05T11:49:34.472Z,3.70
2018-05-05T11:50:34.485Z,2.90
2018-05-05T11:51:34.406Z,4.20
2018-05-05T11:52:34.388Z,2.70
2018-05-05T11:53:34.366Z,5.50
2018-05-05T11:54:34.339Z,2.10
2018-05-05T11:55:34.319Z,7.60
2018-05-05T11:56:34.289Z,6.00
2018-05-05T11:57:34.280Z,6.90
2018-05-05T11:58:34.250Z,3.00
2018-05-05T11:59:34.228Z,1.90
2018-05-05T12:00:34.210Z,6.90
2018-05-05T12:01:34.201Z,3.50
2018-05-05T12:02:34.165Z,2.50
2018-05-05T12:03:34.139Z,3.70
2018-05-05T12:04:34.126Z,4.20
2018-05-05T12:05:34.092Z,3.60
2018-05-05T12:06:34.076Z,5.30
2018-05-05T12:07:34.051Z,5.00
2018-05-05T12:08:34.025Z,3.30
2018-05-05T12:09:34.045Z,2.60
2018-05-05T12:10:33.995Z,4.80
2018-05-05T12:11:33.960Z,3.40
2018-05-05T12:12:33.946Z,4.10
2018-05-05T12:13:33.919Z,6.90
2018-05-05T12:14:33.897Z,3.20
2018-05-05T12:15:33.880Z,5.60
2018-05-05T12:16:33.856Z,2.30
2018-05-05T12:17:33.842Z,4.90
2018-05-05T12:18:33.810Z,2.80
2018-05-05T12:19:33.796Z,4.30
2018-05-05T12:20:33.774Z,6.60
2018-05-05T12:21:33.747Z,3.70
2018-05-05T12:22:33.736Z,3.20
2018-05-05T12:23:33.700Z,5.30
2018-05-05T12:24:33.686Z,2.00
2018-05-05T12:25:33.688Z,4.00
2018-05-05T12:26:33.672Z,2.60
2018-05-05T12:27:33.632Z,6.00
2018-05-05T12:28:33.592Z,4.10
2018-05-05T12:29:33.745Z,3.20
2018-05-05T12:30:33.551Z,3.30
2018-05-05T12:31:33.530Z,4.70
2018-05-05T12:32:33.509Z,1.70
2018-05-05T12:33:33.558Z,2.30
2018-05-05T12:34:33.469Z,2.70
2018-05-05T12:35:33.444Z,3.50
2018-05-05T12:36:33.418Z,3.00
2018-05-05T12:37:33.394Z,4.00
2018-05-05T12:38:33.388Z,12.00
2018-05-05T12:39:33.361Z,9.60
2018-05-05T12:40:33.335Z,5.60
2018-05-05T12:41:33.310Z,3.40
2018-05-05T12:42:33.288Z,2.60
2018-05-05T12:43:33.272Z,4.10
2018-05-05T12:44:33.307Z,3.00
2018-05-05T12:45:33.221Z,5.00
2018-05-05T12:46:33.201Z,4.60
2018-05-05T12:47:33.189Z,2.80
2018-05-05T12:48:33.166Z,3.80
2018-05-05T12:49:33.141Z,4.30
2018-05-05T12:50:33.113Z,3.30
2018-05-05T12:51:33.101Z,3.60
2018-05-05T12:52:33.086Z,2.50
2018-05-05T12:53:33.061Z,2.90
2018-05-05T12:54:33.035Z,4.50
2018-05-05T12:55:33.013Z,5.20
2018-05-05T12:56:32.989Z,2.90
2018-05-05T12:57:32.970Z,4.30
2018-05-05T12:58:32.947Z,4.80
2018-05-05T12:59:32.932Z,5.40
2018-05-05T13:00:32.904Z,5.10
2018-05-05T13:01:32.885Z,2.50
2018-05-05T13:02:32.890Z,2.10
2018-05-05T13:03:32.837Z,2.20
2018-05-05T13:04:32.823Z,3.00
2018-05-05T13:05:32.797Z,2.60
2018-05-05T13:06:32.773Z,2.30
2018-05-05T13:07:32.755Z,2.70
2018-05-05T13:08:32.743Z,4.00
2018-05-05T13:09:32.712Z,2.60
2018-05-05T13:10:32.710Z,3.90
2018-05-05T13:11:32.791Z,3.90
2018-05-05T13:12:32.651Z,6.60
2018-05-05T13:13:32.628Z,3.00
2018-05-05T13:14:32.614Z,2.40